createdAt,value
2023-04-02T00:00:34.819Z,56.66
2023-04-02T00:03:21.758Z,57.11
2023-04-02T00:05:54.553Z,56.98
2023-04-02T00:08:40.210Z,57.06
2023-04-02T00:11:09.107Z,56.88
2023-04-02T00:13:48.648Z,57.28
2023-04-02T00:16:24.336Z,56.62
2023-04-02T00:18:57.542Z,56.48
2023-04-02T00:21:27.737Z,56.46
2023-04-02T00:24:01.111Z,56.33
2023-04-02T00:26:36.604Z,56.58
2023-04-02T00:29:10.914Z,56.53
2023-04-02T00:31:50.917Z,56.47
2023-04-02T00:34:23.479Z,56.27
2023-04-02T00:36:53.076Z,56.25
2023-04-02T00:39:41.161Z,56.11
2023-04-02T00:42:12.424Z,55.86
2023-04-02T00:44:43.395Z,55.78
2023-04-02T00:47:31.168Z,56.17
2023-04-02T00:50:18.060Z,55.87
2023-04-02T00:52:49.484Z,55.85
2023-04-02T00:55:34.179Z,56.08
2023-04-02T00:58:02.152Z,55.95
2023-04-02T01:00:35.435Z,55.70
2023-04-02T01:03:17.161Z,55.63
2023-04-02T01:06:10.221Z,55.72
2023-04-02T01:09:19.299Z,55.80
2023-04-02T01:12:40.081Z,55.79
2023-04-02T01:15:23.684Z,56.08
2023-04-02T01:18:17.719Z,55.74
2023-04-02T01:20:47.208Z,55.56
2023-04-02T01:23:48.709Z,55.64
2023-04-02T01:26:47.516Z,56.03
2023-04-02T01:29:44.748Z,55.66
2023-04-02T01:32:17.689Z,55.70
2023-04-02T01:34:48.404Z,55.61
2023-04-02T01:37:32.179Z,55.78
2023-04-02T01:40:36.037Z,56.30
2023-04-02T01:43:36.622Z,56.19
2023-04-02T01:46:25.819Z,56.10
2023-04-02T01:48:55.927Z,55.87
2023-04-02T01:51:35.132Z,55.92
2023-04-02T01:54:07.955Z,56.42
2023-04-02T01:56:35.289Z,56.01
2023-04-02T01:59:05.238Z,55.97
2023-04-02T02:01:59.514Z,56.06
2023-04-02T02:04:26.755Z,55.93
2023-04-02T02:06:57.906Z,56.19
2023-04-02T02:09:30.372Z,56.19
2023-04-02T02:11:59.883Z,56.13
2023-04-02T02:14:28.913Z,56.07
2023-04-02T02:17:01.899Z,56.10
2023-04-02T02:19:38.807Z,56.38
2023-04-02T02:22:20.651Z,56.46
2023-04-02T02:24:49.475Z,55.89
2023-04-02T02:27:21.962Z,56.03
2023-04-02T02:30:01.979Z,56.06
2023-04-02T02:32:32.184Z,56.10
2023-04-02T02:35:21.069Z,55.91
2023-04-02T02:38:01.375Z,55.81
2023-04-02T02:40:44.772Z,56.01
2023-04-02T02:43:16.432Z,56.12
2023-04-02T02:45:45.628Z,55.81
2023-04-02T02:48:20.321Z,55.90
2023-04-02T02:50:48.675Z,55.95
2023-04-02T02:53:24.740Z,55.95
2023-04-02T02:56:00.829Z,55.93
2023-04-02T02:58:32.121Z,56.04
2023-04-02T03:00:59.126Z,55.89
2023-04-02T03:03:31.950Z,55.94
2023-04-02T03:06:06.779Z,56.28
2023-04-02T03:08:45.847Z,56.24
2023-04-02T03:11:27.613Z,56.32
2023-04-02T03:14:06.298Z,56.46
2023-04-02T03:16:48.495Z,56.35
2023-04-02T03:19:30.788Z,56.60
2023-04-02T03:22:13.405Z,56.58
2023-04-02T03:25:00.540Z,56.21
2023-04-02T03:27:45.946Z,56.42
2023-04-02T03:30:29.837Z,56.22
2023-04-02T03:33:18.095Z,56.17
2023-04-02T03:36:27.881Z,56.95
2023-04-02T03:39:19.757Z,56.84
2023-04-02T03:41:54.965Z,56.57
2023-04-02T03:44:33.050Z,56.61
2023-04-02T03:47:18.779Z,56.54
2023-04-02T03:50:23.038Z,56.69
2023-04-02T03:52:50.426Z,57.05
2023-04-02T03:55:29.486Z,57.06
2023-04-02T03:58:07.472Z,57.27
2023-04-02T04:01:18.145Z,57.39
2023-04-02T04:03:57.125Z,57.49
2023-04-02T04:06:27.086Z,57.32
2023-04-02T04:09:10.477Z,57.40
2023-04-02T04:12:05.312Z,57.38
2023-04-02T04:14:40.526Z,57.28
2023-04-02T04:17:23.978Z,57.31
2023-04-02T04:19:59.582Z,57.24
2023-04-02T04:22:33.293Z,57.20
2023-04-02T04:25:20.631Z,57.20
2023-04-02T04:28:19.274Z,57.05
2023-04-02T04:31:48.304Z,57.22
2023-04-02T04:34:46.186Z,57.17
2023-04-02T04:37:28.956Z,57.23
2023-04-02T04:40:08.737Z,57.17
2023-04-02T04:42:41.799Z,57.16
2023-04-02T04:45:49.297Z,57.22
2023-04-02T04:48:33.237Z,57.10
2023-04-02T04:51:36.897Z,57.08
2023-04-02T04:54:03.754Z,57.03
2023-04-02T04:56:32.170Z,57.11
2023-04-02T04:59:32.224Z,57.01
2023-04-02T05:02:12.641Z,56.93
2023-04-02T05:04:42.964Z,57.05
2023-04-02T05:07:45.423Z,57.28
2023-04-02T05:10:51.229Z,57.76
2023-04-02T05:13:33.467Z,57.81
2023-04-02T05:17:00.726Z,58.56
2023-04-02T05:19:40.977Z,57.78
2023-04-02T05:22:30.340Z,57.28
2023-04-02T05:25:10.825Z,57.36
2023-04-02T05:28:10.797Z,57.10
2023-04-02T05:31:05.190Z,57.43
2023-04-02T05:33:35.823Z,57.24
2023-04-02T05:36:22.407Z,57.35
2023-04-02T05:38:53.603Z,57.03
2023-04-02T05:41:36.099Z,57.42
2023-04-02T05:44:42.168Z,57.35
2023-04-02T05:47:20.128Z,58.09
2023-04-02T05:50:25.628Z,57.77
2023-04-02T05:53:25.739Z,57.80
2023-04-02T05:55:59.777Z,57.38
2023-04-02T05:58:38.520Z,57.07
2023-04-02T06:01:48.699Z,57.58
2023-04-02T06:04:31.422Z,57.13
2023-04-02T06:07:08.145Z,56.65
2023-04-02T06:09:47.133Z,56.68
2023-04-02T06:12:40.817Z,56.74
2023-04-02T06:15:14.936Z,56.76
2023-04-02T06:17:48.010Z,56.73
2023-04-02T06:20:18.407Z,56.64
2023-04-02T06:22:57.276Z,56.48
2023-04-02T06:25:41.963Z,56.33
2023-04-02T06:28:17.240Z,56.35
2023-04-02T06:30:44.355Z,56.48
2023-04-02T06:33:12.853Z,56.49
2023-04-02T06:35:46.594Z,56.58
2023-04-02T06:38:30.479Z,56.68
2023-04-02T06:41:04.591Z,56.67
2023-04-02T06:43:39.176Z,56.65
2023-04-02T06:46:27.715Z,56.38
2023-04-02T06:49:08.742Z,56.22
2023-04-02T06:51:38.359Z,56.27
2023-04-02T06:54:06.781Z,56.15
2023-04-02T06:56:51.166Z,56.10
2023-04-02T06:59:19.362Z,55.70
2023-04-02T07:02:00.321Z,55.52
2023-04-02T07:04:27.163Z,55.32
2023-04-02T07:06:53.584Z,55.19
2023-04-02T07:09:27.660Z,54.84
2023-04-02T07:11:56.538Z,54.50
2023-04-02T07:14:23.454Z,54.57
2023-04-02T07:16:52.023Z,54.47
2023-04-02T07:19:22.275Z,54.39
2023-04-02T07:21:48.942Z,54.49
2023-04-02T07:24:15.488Z,54.40
2023-04-02T07:26:42.337Z,54.31
2023-04-02T07:29:15.318Z,54.19
2023-04-02T07:31:41.949Z,53.73
2023-04-02T07:34:10.964Z,53.34
2023-04-02T07:36:38.371Z,53.26
2023-04-02T07:39:05.064Z,52.86
2023-04-02T07:41:31.624Z,52.47
2023-04-02T07:43:58.045Z,52.09
2023-04-02T07:46:25.244Z,52.08
2023-04-02T07:48:52.247Z,51.98
2023-04-02T07:51:23.607Z,51.88
2023-04-02T07:53:54.975Z,51.17
2023-04-02T07:56:24.304Z,51.08
2023-04-02T07:58:51.144Z,50.26
2023-04-02T08:01:26.039Z,49.38
2023-04-02T08:03:55.617Z,49.18
2023-04-02T08:06:24.415Z,48.24
2023-04-02T08:08:54.094Z,48.35
2023-04-02T08:11:20.520Z,48.51
2023-04-02T08:13:48.005Z,48.92
2023-04-02T08:16:16.243Z,48.80
2023-04-02T08:18:42.736Z,47.95
2023-04-02T08:21:10.517Z,47.81
2023-04-02T08:23:37.768Z,48.08
2023-04-02T08:26:06.281Z,47.89
2023-04-02T08:28:34.649Z,48.19
2023-04-02T08:31:01.567Z,47.84
2023-04-02T08:33:28.174Z,47.84
2023-04-02T08:35:54.630Z,47.20
2023-04-02T08:38:22.131Z,47.14
2023-04-02T08:40:52.841Z,46.69
2023-04-02T08:43:52.553Z,47.04
2023-04-02T08:46:32.607Z,46.91
2023-04-02T08:49:09.624Z,46.25
2023-04-02T08:51:38.983Z,45.74
2023-04-02T08:54:24.941Z,45.97
2023-04-02T08:57:03.602Z,45.59
2023-04-02T08:59:38.150Z,44.90
2023-04-02T09:03:07.778Z,44.19
2023-04-02T09:05:42.197Z,44.62
2023-04-02T09:08:23.745Z,44.70
2023-04-02T09:11:06.460Z,44.25
2023-04-02T09:13:39.594Z,44.25
2023-04-02T09:16:11.804Z,43.85
2023-04-02T09:18:40.950Z,43.88
2023-04-02T09:21:34.242Z,43.13
2023-04-02T09:24:02.858Z,43.20
2023-04-02T09:26:34.162Z,43.01
2023-04-02T09:29:38.714Z,42.31
2023-04-02T09:32:48.240Z,41.81
2023-04-02T09:35:27.086Z,42.22
2023-04-02T09:38:29.604Z,41.81
2023-04-02T09:41:04.568Z,41.71
2023-04-02T09:43:37.892Z,41.59
2023-04-02T09:46:08.807Z,40.91
2023-04-02T09:48:44.253Z,41.37
2023-04-02T09:51:23.342Z,40.51
2023-04-02T09:54:19.722Z,40.69
2023-04-02T09:57:01.015Z,41.09
2023-04-02T09:59:33.025Z,40.57
2023-04-02T10:02:05.340Z,39.60
2023-04-02T10:04:47.488Z,39.70
2023-04-02T10:07:37.170Z,39.91
2023-04-02T10:10:47.733Z,38.41
2023-04-02T10:13:51.184Z,38.39
2023-04-02T10:16:50.761Z,39.07
2023-04-02T10:19:42.556Z,39.32
2023-04-02T10:22:18.403Z,38.84
2023-04-02T10:24:45.531Z,38.80
2023-04-02T10:28:02.908Z,38.28
2023-04-02T10:31:32.959Z,37.41
2023-04-02T10:34:10.680Z,37.74
2023-04-02T10:36:57.273Z,37.99
2023-04-02T10:39:35.488Z,37.45
2023-04-02T10:42:25.666Z,36.42
2023-04-02T10:45:09.028Z,36.44
2023-04-02T10:47:59.796Z,36.41
2023-04-02T10:50:44.038Z,36.77
2023-04-02T10:53:18.529Z,35.77
2023-04-02T10:55:57.936Z,36.63
2023-04-02T10:58:32.875Z,37.00
2023-04-02T11:01:14.041Z,35.80
2023-04-02T11:03:57.729Z,35.89
2023-04-02T11:06:41.481Z,34.98
2023-04-02T11:09:24.238Z,35.47
2023-04-02T11:12:04.394Z,35.07
2023-04-02T11:14:32.641Z,35.55
2023-04-02T11:17:03.212Z,35.07
2023-04-02T11:19:32.990Z,34.79
2023-04-02T11:22:17.018Z,34.38
2023-04-02T11:24:50.622Z,33.43
2023-04-02T11:27:32.133Z,33.03
2023-04-02T11:30:23.750Z,33.35
2023-04-02T11:32:51.295Z,34.04
2023-04-02T11:35:30.329Z,33.35
2023-04-02T11:38:09.886Z,32.90
2023-04-02T11:40:56.299Z,33.51
2023-04-02T11:43:32.528Z,32.53
2023-04-02T11:46:15.899Z,32.73
2023-04-02T11:48:43.019Z,33.27
2023-04-02T11:51:31.194Z,32.24
2023-04-02T11:53:57.986Z,32.82
2023-04-02T11:56:51.243Z,31.83
2023-04-02T11:59:47.749Z,32.75
2023-04-02T12:02:27.333Z,31.88
2023-04-02T12:05:21.005Z,32.14
2023-04-02T12:08:18.445Z,31.57
2023-04-02T12:10:59.914Z,30.89
2023-04-02T12:13:42.154Z,31.36
2023-04-02T12:16:14.106Z,31.81
2023-04-02T12:18:47.515Z,31.83
2023-04-02T12:21:18.699Z,30.39
2023-04-02T12:23:52.304Z,30.58
2023-04-02T12:26:41.722Z,31.32
2023-04-02T12:29:30.085Z,30.78
2023-04-02T12:32:00.340Z,30.72
2023-04-02T12:34:30.509Z,31.29
2023-04-02T12:37:27.311Z,31.41
2023-04-02T12:40:00.747Z,31.51
2023-04-02T12:42:37.170Z,31.26
2023-04-02T12:45:06.197Z,31.26
2023-04-02T12:47:34.829Z,31.28
2023-04-02T12:50:02.032Z,30.30
2023-04-02T12:52:29.775Z,30.17
2023-04-02T12:55:00.121Z,30.54
2023-04-02T12:57:26.746Z,29.76
2023-04-02T13:00:21.776Z,30.16
2023-04-02T13:02:58.086Z,29.99
2023-04-02T13:05:56.703Z,30.36
2023-04-02T13:08:30.136Z,29.94
2023-04-02T13:11:04.681Z,30.66
2023-04-02T13:13:41.332Z,30.12
2023-04-02T13:16:16.483Z,28.87
2023-04-02T13:18:48.639Z,29.09
2023-04-02T13:21:18.807Z,27.90
2023-04-02T13:23:46.564Z,27.54
2023-04-02T13:26:22.115Z,27.40
2023-04-02T13:29:04.081Z,27.94
2023-04-02T13:31:33.329Z,28.63
2023-04-02T13:34:03.644Z,27.96
2023-04-02T13:36:32.131Z,27.85
2023-04-02T13:38:58.602Z,27.45
2023-04-02T13:41:31.927Z,28.17
2023-04-02T13:44:04.014Z,28.38
2023-04-02T13:46:34.525Z,28.48
2023-04-02T13:49:02.426Z,28.47
2023-04-02T13:51:50.306Z,27.95
2023-04-02T13:54:30.890Z,28.06
2023-04-02T13:56:57.450Z,28.78
2023-04-02T13:59:29.664Z,27.43
2023-04-02T14:02:23.276Z,28.22
2023-04-02T14:05:06.261Z,28.71
2023-04-02T14:08:10.985Z,28.95
2023-04-02T14:10:57.752Z,29.19
2023-04-02T14:13:47.745Z,29.29
2023-04-02T14:16:50.111Z,29.54
2023-04-02T14:19:28.350Z,28.79
2023-04-02T14:22:26.111Z,28.50
2023-04-02T14:25:41.743Z,28.47
2023-04-02T14:28:43.582Z,29.04
2023-04-02T14:31:27.170Z,28.86
2023-04-02T14:34:30.278Z,29.37
2023-04-02T14:37:13.790Z,28.96
2023-04-02T14:40:03.554Z,29.01
2023-04-02T14:42:56.364Z,29.33
2023-04-02T14:46:03.874Z,28.97
2023-04-02T14:49:01.526Z,29.58
2023-04-02T14:51:44.521Z,29.43
2023-04-02T14:54:38.342Z,29.23
2023-04-02T14:57:48.597Z,29.24
2023-04-02T15:00:41.573Z,29.44
2023-04-02T15:03:19.412Z,29.14
2023-04-02T15:05:57.579Z,29.13
2023-04-02T15:08:30.652Z,29.64
2023-04-02T15:11:26.874Z,29.21
2023-04-02T15:14:06.311Z,29.31
2023-04-02T15:16:35.899Z,28.98
2023-04-02T15:19:10.834Z,28.75
2023-04-02T15:22:21.836Z,28.54
2023-04-02T15:25:23.056Z,29.03
2023-04-02T15:28:26.001Z,29.07
2023-04-02T15:31:03.182Z,28.63
2023-04-02T15:33:50.917Z,29.16
2023-04-02T15:36:41.274Z,28.92
2023-04-02T15:39:42.591Z,28.78
2023-04-02T15:42:30.306Z,29.05
2023-04-02T15:45:31.649Z,29.33
2023-04-02T15:48:19.323Z,29.39
2023-04-02T15:50:49.010Z,27.64
2023-04-02T15:53:36.978Z,28.41
2023-04-02T15:56:39.652Z,28.53
2023-04-02T15:59:37.279Z,28.94
2023-04-02T16:02:29.226Z,28.45
2023-04-02T16:05:44.834Z,28.29
2023-04-02T16:08:56.640Z,28.80
2023-04-02T16:11:26.638Z,28.83
2023-04-02T16:14:13.907Z,28.55
2023-04-02T16:16:48.009Z,28.29
2023-04-02T16:19:39.998Z,28.18
2023-04-02T16:22:25.985Z,28.25
2023-04-02T16:25:23.730Z,28.58
2023-04-02T16:28:12.367Z,28.70
2023-04-02T16:31:25.440Z,29.22
2023-04-02T16:35:01.784Z,29.14
2023-04-02T16:37:55.814Z,29.59
2023-04-02T16:41:09.032Z,29.50
2023-04-02T16:44:07.143Z,29.87
2023-04-02T16:47:16.535Z,30.13
2023-04-02T16:50:33.148Z,30.11
2023-04-02T16:53:58.471Z,30.33
2023-04-02T16:56:56.909Z,30.76
2023-04-02T16:59:58.698Z,30.58
2023-04-02T17:03:01.767Z,30.06
2023-04-02T17:06:06.942Z,29.99
2023-04-02T17:08:45.778Z,29.67
2023-04-02T17:11:26.221Z,29.73
2023-04-02T17:14:09.199Z,30.38
2023-04-02T17:16:44.808Z,31.85
2023-04-02T17:19:19.195Z,33.00
2023-04-02T17:21:55.051Z,33.59
2023-04-02T17:24:27.740Z,34.44
2023-04-02T17:27:36.500Z,34.66
2023-04-02T17:30:20.452Z,35.53
2023-04-02T17:32:48.402Z,36.02
2023-04-02T17:35:49.593Z,37.49
2023-04-02T17:38:36.930Z,38.64
2023-04-02T17:41:43.431Z,38.95
2023-04-02T17:44:42.997Z,39.99
2023-04-02T17:47:18.821Z,47.66
2023-04-02T17:50:04.118Z,42.67
2023-04-02T17:52:40.926Z,42.12
2023-04-02T17:55:51.138Z,41.75
2023-04-02T17:59:13.147Z,42.24
2023-04-02T18:02:13.257Z,41.01
2023-04-02T18:05:10.055Z,42.30
2023-04-02T18:08:18.152Z,42.80
2023-04-02T18:11:32.642Z,42.66
2023-04-02T18:14:18.967Z,43.19
2023-04-02T18:17:08.323Z,44.72
2023-04-02T18:19:52.806Z,46.30
2023-04-02T18:22:44.127Z,46.03
2023-04-02T18:25:29.144Z,46.90
2023-04-02T18:28:17.609Z,47.32
2023-04-02T18:31:13.110Z,47.58
2023-04-02T18:34:32.770Z,48.75
2023-04-02T18:37:20.680Z,47.25
2023-04-02T18:40:21.701Z,47.18
2023-04-02T18:43:24.635Z,49.84
2023-04-02T18:46:41.744Z,53.16
2023-04-02T18:49:29.433Z,52.74
2023-04-02T18:52:02.672Z,51.99
2023-04-02T18:54:35.642Z,55.44
2023-04-02T18:57:27.841Z,55.48
2023-04-02T19:00:26.908Z,56.07
2023-04-02T19:03:16.617Z,54.55
2023-04-02T19:06:14.886Z,53.89
2023-04-02T19:08:48.806Z,54.37
2023-04-02T19:11:22.637Z,54.55
2023-04-02T19:13:50.731Z,54.24
2023-04-02T19:16:23.560Z,54.12
2023-04-02T19:19:22.805Z,54.92
2023-04-02T19:22:41.338Z,56.14
2023-04-02T19:25:33.784Z,56.32
2023-04-02T19:28:49.510Z,56.52
2023-04-02T19:31:37.877Z,56.83
2023-04-02T19:34:26.025Z,55.52
2023-04-02T19:37:30.335Z,55.66
2023-04-02T19:40:14.634Z,56.51
2023-04-02T19:42:57.787Z,55.87
2023-04-02T19:45:38.190Z,56.00
2023-04-02T19:48:29.339Z,56.07
2023-04-02T19:50:56.354Z,55.57
2023-04-02T19:53:24.140Z,57.09
2023-04-02T19:55:51.125Z,56.97
2023-04-02T19:58:34.563Z,57.62
2023-04-02T20:01:04.357Z,57.31
2023-04-02T20:03:31.777Z,57.89
2023-04-02T20:05:59.057Z,57.82
2023-04-02T20:08:27.312Z,57.95
2023-04-02T20:10:58.059Z,58.04
2023-04-02T20:13:25.947Z,57.25
2023-04-02T20:16:00.564Z,57.51
2023-04-02T20:18:28.755Z,58.84
2023-04-02T20:20:57.217Z,57.60
2023-04-02T20:23:25.097Z,57.47
2023-04-02T20:25:56.925Z,56.98
2023-04-02T20:28:26.445Z,57.34
2023-04-02T20:31:16.045Z,56.41
2023-04-02T20:33:46.713Z,57.87
2023-04-02T20:36:16.869Z,59.39
2023-04-02T20:38:44.742Z,58.66
2023-04-02T20:41:17.333Z,58.03
2023-04-02T20:43:45.353Z,58.51
2023-04-02T20:46:15.733Z,57.90
2023-04-02T20:48:48.583Z,56.94
2023-04-02T20:51:16.752Z,57.70
2023-04-02T20:53:45.966Z,57.37
2023-04-02T20:56:16.569Z,57.84
2023-04-02T20:58:44.647Z,57.62
2023-04-02T21:01:25.609Z,57.72
2023-04-02T21:04:00.514Z,56.97
2023-04-02T21:06:31.040Z,57.39
2023-04-02T21:08:58.635Z,57.68
2023-04-02T21:11:25.520Z,57.84
2023-04-02T21:13:52.721Z,57.96
2023-04-02T21:16:24.745Z,57.11
2023-04-02T21:18:53.021Z,57.81
2023-04-02T21:21:22.138Z,58.10
2023-04-02T21:23:59.135Z,57.85
2023-04-02T21:26:38.751Z,57.97
2023-04-02T21:29:06.688Z,58.12
2023-04-02T21:31:38.782Z,58.35
2023-04-02T21:34:08.733Z,58.54
2023-04-02T21:36:40.002Z,58.83
2023-04-02T21:39:17.508Z,59.77
2023-04-02T21:41:49.476Z,59.87
2023-04-02T21:44:20.752Z,60.18
2023-04-02T21:46:49.343Z,60.67
2023-04-02T21:49:21.362Z,60.50
2023-04-02T21:51:51.287Z,61.30
2023-04-02T21:54:20.756Z,61.81
2023-04-02T21:56:49.168Z,61.17
2023-04-02T21:59:18.745Z,61.42
2023-04-02T22:01:49.261Z,61.48
2023-04-02T22:04:25.383Z,61.38
2023-04-02T22:06:53.712Z,61.43
2023-04-02T22:09:24.411Z,61.33
2023-04-02T22:11:55.602Z,61.13
2023-04-02T22:14:22.501Z,61.26
2023-04-02T22:16:49.586Z,61.43
2023-04-02T22:19:20.997Z,61.20
2023-04-02T22:21:48.024Z,61.43
2023-04-02T22:24:18.237Z,61.40
2023-04-02T22:26:46.573Z,61.37
2023-04-02T22:29:13.831Z,61.29
2023-04-02T22:31:44.767Z,61.62
2023-04-02T22:34:11.762Z,61.47
2023-04-02T22:36:38.271Z,61.44
2023-04-02T22:39:11.817Z,61.20
2023-04-02T22:41:41.359Z,61.49
2023-04-02T22:44:13.762Z,61.00
2023-04-02T22:46:41.240Z,62.08
2023-04-02T22:49:07.882Z,69.22
2023-04-02T22:51:35.190Z,75.65
2023-04-02T22:54:02.247Z,64.73
2023-04-02T22:56:31.480Z,53.67
2023-04-02T22:58:58.328Z,48.73
2023-04-02T23:01:33.255Z,49.14
2023-04-02T23:04:00.107Z,49.90
2023-04-02T23:06:30.265Z,50.93
2023-04-02T23:08:58.347Z,51.59
2023-04-02T23:11:27.448Z,52.66
2023-04-02T23:13:57.731Z,53.49
2023-04-02T23:16:30.205Z,54.15
2023-04-02T23:18:57.749Z,54.69
2023-04-02T23:21:25.774Z,55.63
2023-04-02T23:23:53.270Z,56.23
2023-04-02T23:26:32.111Z,56.75
2023-04-02T23:29:00.179Z,57.24
2023-04-02T23:31:27.920Z,57.40
2023-04-02T23:33:54.793Z,57.87
2023-04-02T23:36:29.161Z,58.23
2023-04-02T23:39:00.603Z,58.75
2023-04-02T23:41:29.219Z,57.69
2023-04-02T23:44:00.500Z,58.70
2023-04-02T23:46:29.077Z,59.56
2023-04-02T23:48:57.856Z,59.99
2023-04-02T23:51:26.485Z,59.78
2023-04-02T23:53:57.047Z,59.73
2023-04-02T23:56:25.236Z,60.42
2023-04-02T23:58:54.614Z,60.47
